Time;durP1;ratioP1;P1;durP2;ratioP2;P2;SDS_P1;SDS_P2;PMS_P1;PMS_P2;Temp;Humidity;BMP_temperature;BMP_pressure;BME280_temperature;BME280_humidity;BME280_pressure;Samples;Min_cycle;Max_cycle;Signal;HPM_P1;HPM_P2
2021/06/12 00:01:24;;;;;;;5.03;3.60;;;;;;;20.58;73.92;100620.19;6340118;28;20280;-75
2021/06/12 00:04:29;;;;;;;4.55;4.25;;;;;;;20.62;73.72;100610.16;6340306;28;20205;-75
2021/06/12 00:07:33;;;;;;;6.10;3.78;;;;;;;20.66;73.73;100614.03;6340021;28;20217;-76
2021/06/12 00:10:39;;;;;;;4.13;3.90;;;;;;;20.59;74.26;100610.78;6339959;28;20187;-76
2021/06/12 00:13:43;;;;;;;5.03;3.88;;;;;;;20.56;74.49;100608.56;6338946;28;20470;-74
2021/06/12 00:16:47;;;;;;;4.50;4.10;;;;;;;20.54;74.40;100608.03;6338128;28;20303;-76
2021/06/12 00:19:51;;;;;;;5.07;3.35;;;;;;;20.58;74.36;100589.69;6340060;28;20186;-76
2021/06/12 00:22:56;;;;;;;4.25;3.85;;;;;;;20.59;74.33;100594.13;6338556;28;20446;-75
2021/06/12 00:26:00;;;;;;;4.00;3.80;;;;;;;20.62;73.88;100592.75;6339452;28;20286;-75
2021/06/12 00:29:04;;;;;;;5.65;3.92;;;;;;;20.52;74.72;100594.44;6338500;28;20182;-75
2021/06/12 00:32:09;;;;;;;4.20;3.90;;;;;;;20.47;74.91;100596.44;6338728;28;20404;-76
2021/06/12 00:35:14;;;;;;;7.72;4.22;;;;;;;20.46;74.66;100590.09;6339359;28;20182;-75
2021/06/12 00:38:20;;;;;;;6.22;4.07;;;;;;;20.49;74.72;100595.03;6321673;28;20240;-75
2021/06/12 00:41:23;;;;;;;6.57;4.10;;;;;;;20.45;74.74;100587.59;6338181;28;20413;-75
2021/06/12 00:44:27;;;;;;;3.85;3.75;;;;;;;20.42;74.66;100583.44;6338123;28;20240;-75
2021/06/12 00:47:30;;;;;;;4.20;4.00;;;;;;;20.40;74.64;100584.84;6339312;28;20273;-75
2021/06/12 00:50:34;;;;;;;5.43;4.13;;;;;;;20.19;74.75;100583.28;6339415;28;20182;-75
2021/06/12 00:53:43;;;;;;;4.72;3.85;;;;;;;20.36;74.36;100579.03;6337662;28;20183;-75
2021/06/12 00:56:47;;;;;;;7.78;3.80;;;;;;;20.31;73.83;100568.00;6337614;28;20500;-75
2021/06/12 00:59:51;;;;;;;4.63;4.10;;;;;;;20.42;73.67;100565.97;6337494;28;20447;-75
2021/06/12 01:02:54;;;;;;;4.30;4.00;;;;;;;20.32;74.28;100560.50;6337714;28;20508;-75
2021/06/12 01:05:58;;;;;;;13.00;4.40;;;;;;;20.24;74.20;100563.88;6338855;28;20214;-76
2021/06/12 01:09:04;;;;;;;10.10;4.55;;;;;;;20.32;73.41;100555.81;6338540;28;20228;-75
2021/06/12 01:12:16;;;;;;;4.28;3.78;;;;;;;20.40;73.28;100557.13;6337394;28;20190;-75
2021/06/12 01:15:20;;;;;;;4.18;3.80;;;;;;;20.34;73.56;100544.44;6337255;28;20259;-75
2021/06/12 01:18:29;;;;;;;6.10;4.03;;;;;;;20.43;72.96;100534.41;6337324;28;20450;-75
2021/06/12 01:21:36;;;;;;;4.75;4.10;;;;;;;20.37;73.57;100535.53;6338234;28;20183;-75
2021/06/12 01:25:03;;;;;;;6.07;4.15;;;;;;;20.41;74.33;100517.25;6337161;28;20183;-75
2021/06/12 01:28:38;;;;;;;4.65;4.28;;;;;;;20.39;75.85;100527.78;6336040;28;20531;-75
2021/06/12 01:31:44;;;;;;;4.10;3.97;;;;;;;20.36;75.13;100518.09;6338120;28;20199;-76
2021/06/12 01:34:49;;;;;;;4.10;4.00;;;;;;;20.26;75.58;100511.81;6287336;28;20219;-76
2021/06/12 01:37:54;;;;;;;4.43;4.13;;;;;;;20.30;77.05;100518.44;6287073;28;20192;-76
2021/06/12 01:41:03;;;;;;;3.92;3.80;;;;;;;20.23;76.97;100512.38;6287739;28;20216;-76
2021/06/12 01:44:11;;;;;;;4.57;4.20;;;;;;;20.13;77.58;100513.28;6287668;28;20185;-75
2021/06/12 01:47:16;;;;;;;4.30;4.00;;;;;;;20.07;78.33;100508.03;6288074;28;20279;-76
2021/06/12 01:50:22;;;;;;;4.03;3.85;;;;;;;20.02;78.67;100505.31;6287557;28;20259;-75
2021/06/12 01:53:31;;;;;;;4.45;3.78;;;;;;;20.04;79.38;100508.59;6286533;28;20538;-76
2021/06/12 01:56:35;;;;;;;4.53;4.43;;;;;;;20.11;78.81;100509.13;6287492;28;20192;-76
2021/06/12 01:59:40;;;;;;;4.68;4.47;;;;;;;20.05;79.41;100504.75;6286502;28;20188;-76
2021/06/12 02:02:46;;;;;;;4.55;4.35;;;;;;;20.05;80.84;100499.19;6286379;28;20379;-76
2021/06/12 02:05:52;;;;;;;4.18;3.97;;;;;;;19.94;81.03;100499.28;6287661;28;20206;-75
2021/06/12 02:08:57;;;;;;;4.57;4.18;;;;;;;19.91;80.89;100499.84;6286589;28;20242;-76
2021/06/12 02:12:01;;;;;;;3.92;3.72;;;;;;;19.86;81.30;100497.09;6286334;28;20553;-75
2021/06/12 02:15:07;;;;;;;4.18;4.07;;;;;;;19.91;81.53;100482.38;6287555;28;20184;-75
2021/06/12 02:18:23;;;;;;;4.40;4.20;;;;;;;19.93;82.52;100486.53;6286979;28;20486;-75
2021/06/12 02:21:28;;;;;;;6.20;4.28;;;;;;;19.92;82.38;100479.34;6287551;28;20184;-75
2021/06/12 02:24:32;;;;;;;4.53;4.35;;;;;;;19.77;84.30;100476.66;6286247;28;20251;-76
2021/06/12 02:27:37;;;;;;;4.18;4.07;;;;;;;19.76;83.88;100463.94;6287384;28;20208;-75
2021/06/12 02:30:45;;;;;;;4.38;4.18;;;;;;;19.87;82.74;100468.31;6286118;28;20556;-75
2021/06/12 02:33:50;;;;;;;4.63;4.28;;;;;;;19.82;83.44;100462.78;6319764;28;20451;-75
2021/06/12 02:36:53;;;;;;;4.22;4.03;;;;;;;19.86;82.76;100463.88;6337225;28;20187;-75
2021/06/12 02:39:57;;;;;;;4.03;3.92;;;;;;;19.86;82.41;100463.88;6340323;28;20218;-75
2021/06/12 02:43:01;;;;;;;4.43;4.10;;;;;;;19.82;83.28;100451.72;6342222;28;20245;-75
2021/06/12 02:46:08;;;;;;;6.30;5.00;;;;;;;19.73;83.31;100436.84;6323259;28;20485;-76
2021/06/12 02:49:20;;;;;;;4.93;4.63;;;;;;;19.68;84.45;100447.94;6322923;28;20202;-75
2021/06/12 02:52:28;;;;;;;4.75;4.45;;;;;;;19.57;84.36;100438.03;6341026;28;20183;-75
2021/06/12 02:55:35;;;;;;;4.80;4.38;;;;;;;19.59;84.09;100446.91;6341605;28;20221;-75
2021/06/12 02:58:41;;;;;;;4.55;4.35;;;;;;;19.44;85.11;100438.66;6340454;28;20486;-75
2021/06/12 03:01:46;;;;;;;4.72;4.32;;;;;;;19.43;84.97;100434.25;6341821;28;20220;-75
2021/06/12 03:04:52;;;;;;;4.93;4.53;;;;;;;19.36;85.74;100430.97;6341424;28;20187;-75
2021/06/12 03:07:58;;;;;;;5.10;4.65;;;;;;;19.21;87.14;100408.88;6340225;28;20513;-75
2021/06/12 03:11:04;;;;;;;5.10;4.80;;;;;;;19.44;85.77;100416.53;6340196;28;20436;-75
2021/06/12 03:14:10;;;;;;;5.30;5.00;;;;;;;19.49;85.79;100413.75;6340129;28;20485;-75
2021/06/12 03:17:15;;;;;;;4.43;4.32;;;;;;;19.54;85.45;100407.38;6340100;28;20439;-75
2021/06/12 03:20:21;;;;;;;4.95;4.57;;;;;;;19.55;84.66;100400.69;6341115;28;20189;-75
2021/06/12 03:23:26;;;;;;;4.65;4.55;;;;;;;19.32;87.08;100402.19;6341364;28;20250;-75
2021/06/12 03:26:31;;;;;;;6.88;4.68;;;;;;;19.32;87.22;100408.56;6340899;28;20240;-75
2021/06/12 03:29:35;;;;;;;8.02;5.32;;;;;;;19.18;88.31;100401.19;6341257;28;20222;-75
2021/06/12 03:32:40;;;;;;;5.47;5.03;;;;;;;18.89;89.57;100414.00;6339864;28;20264;-75
2021/06/12 03:35:46;;;;;;;5.15;4.85;;;;;;;19.09;89.14;100402.88;6339746;28;20370;-75
2021/06/12 03:38:50;;;;;;;5.10;4.93;;;;;;;19.18;87.78;100401.19;6340945;28;20298;-75
2021/06/12 03:41:55;;;;;;;5.28;5.07;;;;;;;19.08;88.54;100401.22;6340601;28;20183;-75
2021/06/12 03:45:02;;;;;;;4.60;4.50;;;;;;;19.10;87.97;100393.47;6321219;28;20270;-75
2021/06/12 03:48:08;;;;;;;4.97;4.65;;;;;;;19.08;88.21;100395.69;6339295;28;20521;-75
2021/06/12 03:51:15;;;;;;;5.10;4.90;;;;;;;18.94;87.74;100367.81;6339278;28;20182;-75
2021/06/12 03:54:18;;;;;;;4.60;4.50;;;;;;;19.02;87.32;100363.66;6340521;28;20246;-75
2021/06/12 03:57:22;;;;;;;4.32;4.13;;;;;;;19.03;87.03;100370.84;6340233;28;20263;-75
2021/06/12 04:00:26;;;;;;;4.97;4.57;;;;;;;19.10;87.30;100382.41;6340507;28;20190;-75
2021/06/12 04:03:30;;;;;;;4.68;4.38;;;;;;;19.01;87.79;100348.16;6340381;28;20225;-75
2021/06/12 04:06:35;;;;;;;4.20;4.10;;;;;;;18.99;87.44;100369.72;6338894;28;20347;-75
2021/06/12 04:09:39;;;;;;;4.68;4.57;;;;;;;18.97;89.50;100360.91;6339926;28;20218;-75
2021/06/12 04:12:43;;;;;;;4.95;4.70;;;;;;;18.98;89.23;100355.06;6338750;28;20187;-75
2021/06/12 04:15:47;;;;;;;5.00;4.80;;;;;;;19.03;89.06;100348.72;6339776;28;20190;-76
2021/06/12 04:18:50;;;;;;;4.63;4.45;;;;;;;19.00;88.54;100350.09;6338586;28;20445;-75
2021/06/12 04:21:55;;;;;;;4.47;4.28;;;;;;;18.97;88.39;100347.09;6339975;28;20250;-75
2021/06/12 04:24:59;;;;;;;4.18;4.03;;;;;;;19.03;87.80;100332.13;6339920;28;20233;-75
2021/06/12 04:28:06;;;;;;;4.15;3.97;;;;;;;18.96;87.72;100337.13;6339065;28;20270;-75
2021/06/12 04:31:10;;;;;;;4.80;4.60;;;;;;;18.94;87.71;100342.13;6338487;28;20441;-75
2021/06/12 04:34:14;;;;;;;4.13;4.03;;;;;;;18.77;88.00;100330.59;6339336;28;20268;-75
2021/06/12 04:37:19;;;;;;;4.18;3.97;;;;;;;18.77;87.44;100326.72;6339282;28;20264;-75
2021/06/12 04:40:22;;;;;;;4.40;4.05;;;;;;;18.72;87.91;100315.69;6338118;28;20228;-75
2021/06/12 04:43:26;;;;;;;4.40;4.30;;;;;;;18.85;87.25;100319.75;6339471;28;20220;-75
2021/06/12 04:46:30;;;;;;;4.32;4.13;;;;;;;18.98;87.25;100310.00;6337995;28;20205;-75
2021/06/12 04:49:33;;;;;;;4.15;3.85;;;;;;;18.85;87.16;100307.91;6339094;28;20207;-75
2021/06/12 04:52:39;;;;;;;3.90;3.80;;;;;;;18.88;87.34;100305.38;6338912;28;20186;-75
2021/06/12 04:55:43;;;;;;;4.40;4.10;;;;;;;18.92;87.11;100297.34;6337817;28;20466;-75
2021/06/12 04:58:47;;;;;;;4.32;4.07;;;;;;;18.85;86.82;100291.31;6337754;28;20494;-75
2021/06/12 05:01:50;;;;;;;6.30;4.00;;;;;;;18.84;86.32;100295.19;6338880;28;20236;-75
2021/06/12 05:04:54;;;;;;;4.18;3.97;;;;;;;18.94;86.52;100293.19;6338888;28;20183;-75
2021/06/12 05:07:59;;;;;;;4.45;4.15;;;;;;;18.88;87.71;100285.19;6338483;28;20245;-75
2021/06/12 05:11:03;;;;;;;4.25;3.92;;;;;;;18.92;86.66;100286.31;6337463;28;20187;-75
2021/06/12 05:14:06;;;;;;;4.55;4.25;;;;;;;18.84;87.32;100278.59;6338692;28;20183;-75
2021/06/12 05:17:15;;;;;;;5.00;4.90;;;;;;;18.95;87.48;100274.69;6337225;28;20374;-75
2021/06/12 05:20:21;;;;;;;4.95;4.75;;;;;;;18.94;88.61;100275.78;6338283;28;20250;-75
2021/06/12 05:23:28;;;;;;;4.93;4.72;;;;;;;18.99;88.39;100264.69;6338525;28;20189;-75
2021/06/12 05:26:32;;;;;;;5.05;4.80;;;;;;;18.93;88.63;100260.28;6338184;28;20205;-75
2021/06/12 05:29:36;;;;;;;4.45;4.35;;;;;;;19.05;88.05;100255.25;6337024;28;20211;-75
2021/06/12 05:32:39;;;;;;;4.45;4.35;;;;;;;18.94;87.95;100256.44;6336676;28;20529;-75
2021/06/12 05:35:43;;;;;;;4.88;4.65;;;;;;;18.96;87.52;100263.31;6337899;28;20205;-75
2021/06/12 05:38:48;;;;;;;4.20;4.10;;;;;;;18.66;88.00;100253.28;6338185;28;20201;-75
2021/06/12 05:41:52;;;;;;;4.50;4.30;;;;;;;18.65;87.61;100259.91;6338124;28;20220;-75
2021/06/12 05:44:56;;;;;;;4.63;4.32;;;;;;;18.70;87.56;100246.06;6336756;28;20381;-75
2021/06/12 05:47:59;;;;;;;3.95;3.85;;;;;;;18.66;87.73;100250.50;6337954;28;20273;-75
2021/06/12 05:51:03;;;;;;;4.18;3.97;;;;;;;18.42;87.95;100260.53;6336910;28;20186;-75
2021/06/12 05:54:09;;;;;;;4.30;4.20;;;;;;;18.60;87.85;100251.63;6336937;28;20194;-75
2021/06/12 05:57:13;;;;;;;4.18;3.88;;;;;;;18.72;87.82;100245.75;6338007;28;20190;-75
2021/06/12 06:00:18;;;;;;;4.50;4.22;;;;;;;18.59;86.99;100241.69;6336824;28;20191;-75
2021/06/12 06:03:22;;;;;;;3.97;3.67;;;;;;;18.65;86.92;100248.03;6336290;28;20393;-75
2021/06/12 06:06:26;;;;;;;3.90;3.80;;;;;;;18.79;86.77;100242.69;6336450;28;20493;-75
2021/06/12 06:09:31;;;;;;;3.78;3.67;;;;;;;18.75;86.03;100243.25;6337520;28;20242;-75
2021/06/12 06:12:35;;;;;;;4.22;4.03;;;;;;;18.79;86.43;100237.19;6336294;28;20523;-75
2021/06/12 06:15:39;;;;;;;4.38;4.18;;;;;;;18.82;85.80;100236.63;6341424;28;20190;-75
2021/06/12 06:18:43;;;;;;;4.00;3.70;;;;;;;18.88;85.56;100252.03;6342809;28;20253;-75
2021/06/12 06:21:46;;;;;;;7.53;3.92;;;;;;;18.87;84.29;100244.88;6341788;28;20287;-75
2021/06/12 06:24:51;;;;;;;3.53;3.42;;;;;;;18.55;82.06;100237.84;6342768;28;20250;-75
2021/06/12 06:27:55;;;;;;;4.10;3.80;;;;;;;18.74;82.68;100225.06;6342184;28;20210;-75
2021/06/12 06:30:59;;;;;;;3.65;3.45;;;;;;;18.83;82.97;100228.03;6341200;28;20214;-75
2021/06/12 06:34:03;;;;;;;3.45;3.35;;;;;;;18.72;82.27;100216.19;6340676;28;20234;-75
2021/06/12 06:37:07;;;;;;;4.07;3.30;;;;;;;18.66;81.10;100233.94;6341415;28;20183;-75
2021/06/12 06:40:13;;;;;;;3.10;3.10;;;;;;;18.61;80.26;100220.16;6340971;28;20187;-75
2021/06/12 06:43:17;;;;;;;5.22;3.72;;;;;;;18.64;79.54;100219.56;6340898;28;20213;-75
2021/06/12 06:46:21;;;;;;;3.40;3.10;;;;;;;18.68;78.94;100226.19;6340875;28;20527;-75
2021/06/12 06:49:25;;;;;;;4.30;3.90;;;;;;;18.90;80.17;100216.66;6340669;28;20584;-75
2021/06/12 06:52:29;;;;;;;4.35;3.28;;;;;;;18.87;79.58;100222.75;6342127;28;20224;-75
2021/06/12 06:55:34;;;;;;;3.25;3.15;;;;;;;19.07;79.46;100206.03;6340424;28;20190;-75
2021/06/12 06:58:38;;;;;;;3.53;3.33;;;;;;;19.15;80.01;100199.88;6341341;28;20254;-75
2021/06/12 07:01:44;;;;;;;4.68;3.53;;;;;;;19.09;79.56;100189.97;6341709;28;20214;-75
2021/06/12 07:04:48;;;;;;;6.00;4.15;;;;;;;19.17;81.23;100189.34;6341887;28;20334;-75
2021/06/12 07:07:52;;;;;;;5.22;3.45;;;;;;;19.27;78.66;100178.22;6341086;28;20183;-75
2021/06/12 07:10:57;;;;;;;3.65;3.55;;;;;;;19.41;77.85;100184.75;6340995;28;20221;-75
2021/06/12 07:14:01;;;;;;;4.13;3.55;;;;;;;19.53;79.06;100176.06;6340918;28;20236;-75
2021/06/12 07:17:05;;;;;;;3.15;3.05;;;;;;;19.49;78.78;100167.50;6339793;28;20372;-75
2021/06/12 07:20:11;;;;;;;3.58;3.22;;;;;;;19.45;79.14;100169.22;6341231;28;20186;-75
2021/06/12 07:23:17;;;;;;;3.33;3.20;;;;;;;19.39;78.02;100164.84;6340211;28;20208;-75
2021/06/12 07:26:22;;;;;;;3.40;3.20;;;;;;;19.26;77.75;100171.00;6322956;28;20199;-75
2021/06/12 07:29:26;;;;;;;3.08;2.97;;;;;;;19.22;77.03;100164.44;6339489;28;20234;-75
2021/06/12 07:32:30;;;;;;;3.33;3.03;;;;;;;19.24;77.05;100162.19;6340789;28;20310;-75
2021/06/12 07:35:34;;;;;;;4.53;2.63;;;;;;;19.26;75.69;100165.47;6340749;28;20182;-75
2021/06/12 07:38:38;;;;;;;2.78;2.67;;;;;;;19.26;73.92;100159.94;6340652;28;20232;-75
2021/06/12 07:41:43;;;;;;;3.05;2.90;;;;;;;19.40;72.93;100160.97;6340333;28;20183;-75
2021/06/12 07:44:47;;;;;;;3.30;3.08;;;;;;;19.49;72.32;100163.94;6339849;28;20183;-75
2021/06/12 07:47:51;;;;;;;4.70;2.90;;;;;;;19.25;69.86;100147.25;6340367;28;20183;-75
2021/06/12 07:50:55;;;;;;;3.38;2.70;;;;;;;19.49;70.54;100159.22;6339953;28;20211;-75
2021/06/12 07:54:00;;;;;;;5.95;2.75;;;;;;;19.71;69.26;100145.72;6339790;28;20410;-75
2021/06/12 07:57:07;;;;;;;4.05;2.60;;;;;;;19.77;68.84;100138.97;6339872;28;20189;-75
2021/06/12 08:00:13;;;;;;;2.70;2.63;;;;;;;19.84;68.90;100150.53;6338743;28;20497;-75
2021/06/12 08:03:18;;;;;;;5.60;2.70;;;;;;;19.80;67.79;100149.47;6340018;28;20189;-75
2021/06/12 08:06:22;;;;;;;3.13;2.83;;;;;;;19.81;67.19;100140.06;6338613;28;20296;-76
2021/06/12 08:09:26;;;;;;;4.95;3.05;;;;;;;19.96;68.97;100137.09;6339714;28;20274;-76
2021/06/12 08:12:32;;;;;;;2.80;2.60;;;;;;;19.89;67.52;100131.13;6339487;28;20220;-75
2021/06/12 08:15:36;;;;;;;6.43;2.80;;;;;;;20.00;67.52;100138.16;6320953;28;20202;-75
2021/06/12 08:18:40;;;;;;;3.20;2.80;;;;;;;19.94;67.18;100139.34;6321090;28;20247;-75
2021/06/12 08:21:44;;;;;;;2.40;2.30;;;;;;;19.93;66.70;100137.69;6338312;28;20183;-75
2021/06/12 08:24:49;;;;;;;6.75;2.80;;;;;;;20.03;67.33;100138.69;6339351;28;20228;-75
2021/06/12 08:27:54;;;;;;;3.47;2.85;;;;;;;20.07;65.27;100148.06;6338911;28;20229;-75
2021/06/12 08:30:59;;;;;;;3.00;2.80;;;;;;;20.00;67.46;100143.69;6339162;28;20226;-75
2021/06/12 08:34:03;;;;;;;3.13;2.92;;;;;;;19.94;68.64;100150.44;6338966;28;20240;-75
2021/06/12 08:37:09;;;;;;;4.18;3.05;;;;;;;19.84;66.95;100145.00;6337394;28;20183;-75
2021/06/12 08:40:14;;;;;;;2.65;2.50;;;;;;;19.86;68.15;100153.84;6339375;28;20191;-75
2021/06/12 08:43:26;;;;;;;4.82;2.60;;;;;;;19.77;67.47;100144.50;6338973;28;20324;-75
2021/06/12 08:46:30;;;;;;;5.97;3.00;;;;;;;19.69;67.76;100147.97;6337786;28;20261;-75
2021/06/12 08:49:34;;;;;;;3.88;2.60;;;;;;;19.64;66.34;100149.94;6338464;28;20206;-75
2021/06/12 08:52:39;;;;;;;3.75;2.70;;;;;;;19.57;66.38;100150.28;6337456;28;20450;-75
2021/06/12 08:55:44;;;;;;;6.72;2.83;;;;;;;19.51;66.89;100147.88;6337062;28;20229;-75
2021/06/12 08:58:49;;;;;;;4.18;2.60;;;;;;;19.58;65.78;100140.03;6338318;28;20183;-76
2021/06/12 09:01:55;;;;;;;5.15;2.85;;;;;;;19.57;65.41;100139.22;6338328;28;20182;-75
2021/06/12 09:05:00;;;;;;;3.38;2.40;;;;;;;19.60;64.85;100137.81;6338444;28;20183;-75
2021/06/12 09:08:06;;;;;;;13.02;2.72;;;;;;;19.55;65.30;100135.09;6337975;28;20220;-75
2021/06/12 09:11:12;;;;;;;5.85;3.22;;;;;;;19.53;66.07;100127.09;6337888;28;20213;-75
2021/06/12 09:14:17;;;;;;;2.45;2.35;;;;;;;19.66;65.28;100137.47;6336862;28;20415;-75
2021/06/12 09:17:37;;;;;;;2.90;2.72;;;;;;;19.58;63.17;100117.91;6336862;28;20493;-76
2021/06/12 09:20:45;;;;;;;4.30;2.85;;;;;;;19.68;64.59;100126.94;6336653;28;20195;-76
2021/06/12 09:23:48;;;;;;;8.10;3.00;;;;;;;19.62;64.34;100125.31;6337717;28;20264;-76
2021/06/12 09:26:54;;;;;;;7.82;2.58;;;;;;;19.57;63.09;100128.16;6337274;28;20240;-76
2021/06/12 09:30:01;;;;;;;4.35;3.35;;;;;;;19.63;62.52;100126.16;6338039;28;20222;-76
2021/06/12 09:33:05;;;;;;;13.07;2.70;;;;;;;19.62;62.57;100125.31;6337822;28;20234;-75
2021/06/12 09:36:12;;;;;;;6.57;2.63;;;;;;;19.78;62.74;100112.13;6337099;28;20257;-75
2021/06/12 09:39:17;;;;;;;3.22;2.92;;;;;;;19.83;61.73;100107.38;6337962;28;20187;-75
2021/06/12 09:42:35;;;;;;;3.97;2.72;;;;;;;20.00;62.66;100121.53;6336518;28;20245;-76
2021/06/12 09:45:40;;;;;;;3.28;3.03;;;;;;;20.06;62.32;100116.75;6336217;28;20492;-75
2021/06/12 09:48:53;;;;;;;3.33;2.60;;;;;;;19.97;61.80;100127.69;6335423;28;20214;-75
2021/06/12 09:52:06;;;;;;;6.38;3.10;;;;;;;20.10;62.71;100119.78;6338465;28;20238;-75
2021/06/12 09:55:23;;;;;;;3.70;3.40;;;;;;;20.16;62.82;100129.69;6336871;28;20206;-75
2021/06/12 09:58:29;;;;;;;4.70;2.97;;;;;;;20.25;61.60;100127.91;6336507;28;20221;-76
2021/06/12 10:01:34;;;;;;;3.15;2.95;;;;;;;20.28;62.36;100128.16;6336162;28;20474;-76
2021/06/12 10:04:56;;;;;;;4.63;3.08;;;;;;;20.44;63.33;100121.25;6337171;28;20182;-76
2021/06/12 10:08:02;;;;;;;4.80;2.70;;;;;;;20.17;61.70;100120.22;6336128;28;20541;-78
2021/06/12 10:11:06;;;;;;;5.10;3.10;;;;;;;20.24;62.72;100126.25;6337307;28;20218;-76
2021/06/12 10:14:11;;;;;;;3.10;2.85;;;;;;;20.42;62.64;100125.44;6337156;28;20182;-75
2021/06/12 10:17:17;;;;;;;2.83;2.58;;;;;;;20.51;61.76;100120.91;6336711;28;20190;-75
2021/06/12 10:20:23;;;;;;;3.97;2.90;;;;;;;20.56;62.06;100112.50;6335890;28;20384;-75
2021/06/12 10:23:27;;;;;;;3.13;2.85;;;;;;;20.53;61.50;100119.47;6337137;28;20183;-76
2021/06/12 10:26:32;;;;;;;4.50;2.65;;;;;;;20.41;60.81;100104.44;6336929;28;20552;-75
2021/06/12 10:29:36;;;;;;;5.65;2.60;;;;;;;20.54;62.14;100115.56;6337439;28;20189;-75
2021/06/12 10:32:45;;;;;;;2.83;2.72;;;;;;;20.56;62.06;100112.50;6336285;28;20416;-75
2021/06/12 10:35:49;;;;;;;3.10;2.83;;;;;;;20.17;60.49;100109.16;6335847;28;20521;-75
2021/06/12 10:38:55;;;;;;;3.15;2.95;;;;;;;20.35;61.03;100103.66;6317776;28;20198;-76
2021/06/12 10:42:14;;;;;;;4.07;2.95;;;;;;;20.31;61.87;100104.56;6337147;28;20194;-75
2021/06/12 10:45:18;;;;;;;3.03;2.72;;;;;;;20.42;61.44;100101.34;6336000;28;20221;-75
2021/06/12 10:48:44;;;;;;;3.10;2.80;;;;;;;20.63;61.28;100109.34;6336499;28;20258;-76
2021/06/12 10:51:48;;;;;;;3.38;3.17;;;;;;;20.43;61.73;100103.00;6336810;28;20210;-76
2021/06/12 10:54:52;;;;;;;4.10;2.97;;;;;;;20.55;61.62;100108.06;6336290;28;20213;-75
2021/06/12 10:57:56;;;;;;;3.88;3.60;;;;;;;20.59;61.46;100106.38;6336695;28;20182;-76
2021/06/12 11:01:21;;;;;;;3.97;2.90;;;;;;;20.68;61.83;100093.47;6338962;28;20262;-76
2021/06/12 11:04:41;;;;;;;5.53;3.08;;;;;;;20.67;60.83;100097.38;6340130;28;20193;-77
2021/06/12 11:07:45;;;;;;;7.18;2.97;;;;;;;20.68;60.69;100082.38;6340932;28;20194;-74
2021/06/12 11:10:51;;;;;;;5.35;3.20;;;;;;;20.67;59.86;100075.19;6340012;28;20412;-74
2021/06/12 11:14:27;;;;;;;8.48;3.95;;;;;;;20.63;58.60;100068.59;6340020;28;20478;-74
2021/06/12 11:17:31;;;;;;;6.63;3.42;;;;;;;20.72;60.45;100077.06;6340835;28;20205;-75
2021/06/12 11:20:36;;;;;;;5.05;3.30;;;;;;;20.84;60.00;100080.19;6340959;28;20237;-75
2021/06/12 11:23:46;;;;;;;3.58;3.28;;;;;;;20.82;59.54;100069.41;6341172;28;20248;-77
2021/06/12 11:26:58;;;;;;;4.13;3.00;;;;;;;20.94;58.99;100075.28;6341059;28;20183;-75
2021/06/12 11:30:21;;;;;;;3.95;3.15;;;;;;;20.71;57.63;100070.69;6340667;28;20214;-75
2021/06/12 11:33:28;;;;;;;5.82;2.92;;;;;;;20.86;58.62;100067.66;6340206;28;20298;-76
2021/06/12 11:36:33;;;;;;;6.25;2.78;;;;;;;20.89;59.44;100055.97;6340584;28;20183;-76
2021/06/12 11:39:48;;;;;;;2.97;2.78;;;;;;;20.87;57.81;100065.72;6340626;28;20183;-76
2021/06/12 11:42:58;;;;;;;3.22;2.92;;;;;;;20.82;58.05;100061.09;6321858;28;20206;-75
2021/06/12 11:46:04;;;;;;;4.10;2.80;;;;;;;21.01;58.10;100074.88;6340083;28;20183;-76
2021/06/12 11:49:09;;;;;;;8.93;3.20;;;;;;;21.07;57.30;100073.72;6339049;28;20372;-75
2021/06/12 11:52:15;;;;;;;2.90;2.70;;;;;;;20.98;56.71;100062.44;6340477;28;20211;-76
2021/06/12 11:55:21;;;;;;;5.25;2.80;;;;;;;20.82;56.08;100060.25;6339342;28;20199;-75
2021/06/12 11:58:25;;;;;;;4.55;2.85;;;;;;;21.03;57.69;100062.34;6339544;28;20205;-75
2021/06/12 12:01:40;;;;;;;3.08;2.83;;;;;;;21.23;56.67;100060.38;6340187;28;20209;-76
2021/06/12 12:04:46;;;;;;;3.15;2.60;;;;;;;20.99;56.59;100055.78;6339696;28;20205;-77
2021/06/12 12:07:51;;;;;;;2.92;2.67;;;;;;;21.16;56.82;100055.22;6339717;28;20221;-75
2021/06/12 12:10:56;;;;;;;5.72;2.80;;;;;;;21.23;57.45;100050.13;6339575;28;20207;-79
2021/06/12 12:14:13;;;;;;;9.57;2.90;;;;;;;21.25;57.29;100052.56;6339869;28;20190;-75
2021/06/12 12:17:21;;;;;;;2.88;2.65;;;;;;;21.23;57.27;100049.28;6338456;28;20433;-75
2021/06/12 12:20:24;;;;;;;9.13;3.22;;;;;;;21.32;57.01;100053.00;6339582;28;20187;-75
2021/06/12 12:23:31;;;;;;;14.35;3.17;;;;;;;21.41;56.96;100037.28;6338112;28;20205;-75
2021/06/12 12:26:34;;;;;;;5.07;2.88;;;;;;;21.40;56.15;100038.41;6338102;28;20437;-75
2021/06/12 12:29:39;;;;;;;3.15;2.55;;;;;;;21.52;56.73;100030.41;6338013;28;20182;-76
2021/06/12 12:32:43;;;;;;;3.90;2.65;;;;;;;21.58;55.69;100029.16;6337788;28;20532;-76
2021/06/12 12:35:48;;;;;;;5.03;2.63;;;;;;;21.79;55.73;100025.66;6338906;28;20215;-76
2021/06/12 12:39:05;;;;;;;5.43;2.33;;;;;;;21.83;54.74;100031.41;6338790;28;20186;-76
2021/06/12 12:42:15;;;;;;;3.95;2.78;;;;;;;21.86;54.32;100025.25;6338092;28;20195;-76
2021/06/12 12:45:20;;;;;;;2.50;2.30;;;;;;;21.89;54.42;100019.09;6337496;28;20324;-75
2021/06/12 12:48:24;;;;;;;2.47;2.35;;;;;;;22.01;54.36;100022.16;6337434;28;20496;-75
2021/06/12 12:51:29;;;;;;;2.58;2.38;;;;;;;22.07;53.37;100015.34;6337005;28;20614;-75
2021/06/12 12:54:35;;;;;;;2.10;2.10;;;;;;;22.10;54.39;100019.47;6337156;28;20220;-76
2021/06/12 12:57:41;;;;;;;3.10;2.83;;;;;;;22.32;53.18;100011.16;6337994;28;20225;-75
2021/06/12 13:00:44;;;;;;;3.88;2.72;;;;;;;22.39;52.84;100009.56;6338655;28;20190;-75
2021/06/12 13:03:51;;;;;;;2.80;2.60;;;;;;;22.48;52.24;100003.25;6337883;28;20183;-75
2021/06/12 13:07:09;;;;;;;2.97;2.50;;;;;;;22.50;52.16;100001.81;6337088;28;20218;-75
2021/06/12 13:10:16;;;;;;;2.75;2.55;;;;;;;22.61;52.01;100005.16;6337878;28;20190;-75
2021/06/12 13:13:22;;;;;;;2.80;2.50;;;;;;;22.42;51.92;100022.84;6337940;28;20214;-75
2021/06/12 13:16:26;;;;;;;2.15;2.00;;;;;;;22.20;52.59;100042.28;6336940;28;20478;-76
2021/06/12 13:19:34;;;;;;;4.55;2.80;;;;;;;21.67;53.79;100043.97;6337684;28;20246;-74
2021/06/12 13:22:39;;;;;;;5.10;2.20;;;;;;;21.88;55.55;100061.88;6338049;28;20249;-75
2021/06/12 13:25:44;;;;;;;4.03;1.85;;;;;;;21.47;57.80;100067.41;6336805;28;20214;-75
2021/06/12 13:28:49;;;;;;;2.20;2.10;;;;;;;21.54;59.19;100072.56;6338076;28;20182;-75
2021/06/12 13:31:52;;;;;;;2.28;2.20;;;;;;;21.32;60.96;100069.63;6338157;28;20281;-76
2021/06/12 13:34:56;;;;;;;4.28;2.17;;;;;;;20.60;64.14;100086.66;6288000;28;20215;-76
2021/06/12 13:38:09;;;;;;;3.60;1.98;;;;;;;20.98;62.34;100092.94;6287548;28;20216;-75
2021/06/12 13:41:16;;;;;;;1.65;1.65;;;;;;;20.66;60.44;100090.19;6287705;28;20220;-75
2021/06/12 13:44:20;;;;;;;1.88;1.60;;;;;;;20.64;59.79;100086.88;6287570;28;20230;-75
2021/06/12 13:47:23;;;;;;;2.95;1.30;;;;;;;20.75;60.15;100085.59;6286396;28;20251;-75
2021/06/12 13:50:27;;;;;;;1.70;1.70;;;;;;;20.68;59.14;100092.63;6287856;28;20184;-76
2021/06/12 13:53:39;;;;;;;1.77;1.70;;;;;;;20.73;59.27;100090.59;6287554;28;20282;-75
2021/06/12 13:56:44;;;;;;;1.80;1.80;;;;;;;20.95;59.29;100099.13;6287554;28;20223;-76
2021/06/12 13:59:47;;;;;;;1.38;1.38;;;;;;;20.90;59.25;100090.06;6286528;28;20238;-76
2021/06/12 14:02:51;;;;;;;1.30;1.30;;;;;;;20.90;60.10;100093.63;6287521;28;20225;-75
2021/06/12 14:05:55;;;;;;;1.50;1.50;;;;;;;20.87;60.69;100097.03;6287614;28;20267;-75
2021/06/12 14:08:59;;;;;;;1.65;1.60;;;;;;;21.62;57.48;100096.81;6287004;28;20191;-75
2021/06/12 14:12:06;;;;;;;1.88;1.77;;;;;;;22.60;55.01;100090.50;6286045;28;20446;-75
2021/06/12 14:15:12;;;;;;;1.60;1.60;;;;;;;22.30;54.90;100108.72;6285836;28;20184;-76
2021/06/12 14:18:16;;;;;;;1.20;1.20;;;;;;;21.66;56.42;100109.78;6287023;28;20191;-75
2021/06/12 14:21:22;;;;;;;1.55;1.45;;;;;;;21.27;56.65;100103.84;6287366;28;20192;-76
2021/06/12 14:24:26;;;;;;;1.52;1.52;;;;;;;21.17;57.52;100107.63;6286998;28;20252;-76